Time;durP1;ratioP1;P1;durP2;ratioP2;P2;SDS_P1;SDS_P2;PMS_P1;PMS_P2;Temp;Humidity;BMP_temperature;BMP_pressure;BME280_temperature;BME280_humidity;BME280_pressure;Samples;Min_cycle;Max_cycle;Signal;HPM_P1;HPM_P2
2024/04/19 00:02:08;;;;;;;3.67;1.60;;;;;;;;;;5426341;26;20398;-74
2024/04/19 00:04:34;;;;;;;4.68;2.72;;;;;;;;;;5426399;26;20073;-75
2024/04/19 00:07:00;;;;;;;2.35;2.13;;;2.50;99.90;;;;;;5413713;26;20076;-75
2024/04/19 00:09:26;;;;;;;3.47;1.73;;;;;;;;;;5385156;26;19999;-74
2024/04/19 00:11:52;;;;;;;3.05;1.90;;;;;;;;;;5434668;26;19999;-74
2024/04/19 00:14:17;;;;;;;7.25;2.63;;;2.80;99.90;;;;;;5428841;26;20460;-75
2024/04/19 00:16:43;;;;;;;7.35;2.38;;;2.50;99.90;;;;;;5423069;26;20036;-74
2024/04/19 00:19:09;;;;;;;5.97;2.10;;;;;;;;;;5427964;26;19999;-74
2024/04/19 00:21:35;;;;;;;3.75;2.22;;;2.30;99.90;;;;;;5448827;26;20075;-74
2024/04/19 00:24:01;;;;;;;3.00;2.13;;;;;;;;;;5438225;26;20842;-74
2024/04/19 00:26:27;;;;;;;6.95;2.42;;;;;;;;;;5427511;26;20075;-74
2024/04/19 00:28:53;;;;;;;14.52;3.42;;;;;;;;;;5426756;26;20076;-75
2024/04/19 00:31:19;;;;;;;7.63;3.53;;;;;;;;;;5415455;26;19999;-75
2024/04/19 00:33:45;;;;;;;4.78;2.65;;;;;;;;;;5417539;26;20000;-74
2024/04/19 00:36:11;;;;;;;5.38;2.85;;;;;;;;;;5414665;26;20004;-75
2024/04/19 00:38:36;;;;;;;5.13;2.45;;;2.70;99.90;;;;;;5413320;26;20003;-74
2024/04/19 00:41:02;;;;;;;7.32;3.90;;;;;;;;;;5416903;26;20112;-74
2024/04/19 00:43:29;;;;;;;1.70;1.55;;;;;;;;;;5473447;26;20332;-74
2024/04/19 00:45:55;;;;;;;4.45;2.45;;;;;;;;;;5484559;26;20087;-74
2024/04/19 00:48:22;;;;;;;3.10;2.08;;;2.60;99.90;;;;;;5459662;26;20010;-74
2024/04/19 00:50:56;;;;;;;6.95;3.22;;;2.40;99.90;;;;;;5469231;26;20489;-74
2024/04/19 00:53:27;;;;;;;3.15;1.63;;;2.40;99.90;;;;;;5472396;26;20007;-74
2024/04/19 00:55:58;;;;;;;5.35;2.35;;;2.40;99.90;;;;;;5472803;26;20063;-75
2024/04/19 00:58:28;;;;;;;5.80;1.98;;;2.40;99.90;;;;;;5483012;26;19998;-74
2024/04/19 01:00:55;;;;;;;5.95;2.50;;;2.40;99.90;;;;;;5462707;26;20447;-75
2024/04/19 01:03:21;;;;;;;4.88;2.70;;;2.40;99.90;;;;;;5452116;26;20594;-74
2024/04/19 01:05:47;;;;;;;1.92;1.55;;;;;;;;;;5451499;26;20007;-74
2024/04/19 01:08:13;;;;;;;3.70;2.20;;;2.50;99.90;;;;;;5479634;26;20035;-74
2024/04/19 01:10:40;;;;;;;4.72;2.53;;;2.60;99.90;;;;;;5487050;26;20002;-75
2024/04/19 01:13:06;;;;;;;3.88;2.50;;;2.20;99.90;;;;;;5480934;26;20003;-74
2024/04/19 01:15:35;;;;;;;6.47;1.83;;;2.10;99.90;;;;;;5450449;26;20002;-75
2024/04/19 01:18:05;;;;;;;3.45;2.15;;;2.10;99.90;;;;;;5457055;26;19994;-75
2024/04/19 01:20:30;;;;;;;2.65;2.25;;;2.60;99.90;;;;;;5464585;26;19999;-75
2024/04/19 01:22:57;;;;;;;10.77;2.63;;;2.00;99.90;;;;;;5473192;26;20013;-75
2024/04/19 01:25:35;;;;;;;4.38;2.40;;;1.60;99.90;;;;;;5449192;26;20044;-74
2024/04/19 01:28:04;;;;;;;2.28;2.08;;;1.90;99.90;;;;;;5448585;26;20592;-75
2024/04/19 01:30:30;;;;;;;4.80;2.22;;;;;;;;;;5451622;26;20088;-74
2024/04/19 01:32:56;;;;;;;1.95;1.70;;;;;;;;;;5493397;26;20015;-74
2024/04/19 01:35:22;;;;;;;2.28;1.85;;;;;;;;;;5468113;26;19994;-74
2024/04/19 01:37:49;;;;;;;4.05;2.28;;;;;;;;;;5448270;26;20002;-74
2024/04/19 01:40:15;;;;;;;3.30;1.65;;;1.60;99.90;;;;;;5471706;26;20071;-75
2024/04/19 01:42:41;;;;;;;4.00;2.35;;;1.60;99.90;;;;;;5461520;26;19998;-74
2024/04/19 01:45:07;;;;;;;3.30;2.40;;;;;;;;;;5481566;26;20055;-74
2024/04/19 01:47:33;;;;;;;4.25;2.33;;;;;;;;;;5450362;26;20081;-74
2024/04/19 01:49:59;;;;;;;6.15;1.88;;;;;;;;;;5448769;26;20014;-74
2024/04/19 01:52:25;;;;;;;3.67;2.53;;;;;;;;;;5449111;26;20014;-74
2024/04/19 01:54:51;;;;;;;9.25;3.83;;;;;;;;;;5453991;26;20013;-74
2024/04/19 01:57:17;;;;;;;3.40;1.75;;;;;;;;;;5448321;26;20348;-74
2024/04/19 01:59:43;;;;;;;3.50;2.38;;;;;;;;;;5446946;26;20357;-74
2024/04/19 02:02:09;;;;;;;1.70;1.55;;;;;;;;;;5448823;26;19999;-74
2024/04/19 02:04:35;;;;;;;5.57;3.00;;;;;;;;;;5448617;26;20002;-74
2024/04/19 02:07:01;;;;;;;2.63;1.45;;;;;;;;;;5448838;26;20067;-74
2024/04/19 02:09:27;;;;;;;4.53;2.28;;;1.40;99.90;;;;;;5451426;26;20331;-75
2024/04/19 02:11:53;;;;;;;4.45;1.90;;;;;;;;;;5482926;26;20012;-74
2024/04/19 02:14:19;;;;;;;3.50;2.53;;;1.20;99.90;;;;;;5463452;26;20013;-71
2024/04/19 02:16:45;;;;;;;2.25;2.03;;;;;;;;;;5472428;26;20403;-74
2024/04/19 02:19:10;;;;;;;3.10;2.22;;;1.20;99.90;;;;;;5452291;26;20002;-74
2024/04/19 02:21:36;;;;;;;4.55;2.28;;;;;;;;;;5483537;26;20002;-74
2024/04/19 02:24:06;;;;;;;4.70;2.25;;;;;;;;;;5480455;26;20433;-74
2024/04/19 02:26:32;;;;;;;2.70;1.63;;;;;;;;;;5448362;26;20045;-74
2024/04/19 02:31:43;;;;;;;1.95;1.83;;;;;;;;;;5485541;26;20086;-74
2024/04/19 02:34:09;;;;;;;3.00;1.92;;;1.30;99.90;;;;;;5456115;26;20010;-75
2024/04/19 02:36:35;;;;;;;3.95;2.40;;;;;;;;;;5452869;26;20010;-75
2024/04/19 02:39:01;;;;;;;2.20;1.33;;;;;;;;;;5447891;26;20075;-74
2024/04/19 02:41:27;;;;;;;3.00;2.08;;;;;;;;;;5465610;26;20365;-74
2024/04/19 02:43:53;;;;;;;1.65;1.27;;;;;;;;;;5475829;26;19999;-74
2024/04/19 02:46:19;;;;;;;2.58;1.90;;;;;;;;;;5458634;26;20013;-75
2024/04/19 02:48:46;;;;;;;2.63;1.77;;;;;;;;;;5507805;26;20077;-74
2024/04/19 02:51:11;;;;;;;1.73;1.63;;;0.80;99.90;;;;;;5502788;25;20016;-74
2024/04/19 02:53:37;;;;;;;3.92;1.77;;;0.70;99.90;;;;;;5450896;26;20325;-74
2024/04/19 02:56:05;;;;;;;4.10;2.53;;;;;;;;;;5493213;26;20001;-74
2024/04/19 02:58:30;;;;;;;3.75;2.03;;;0.70;99.90;;;;;;5460312;25;20030;-74
2024/04/19 03:00:56;;;;;;;5.22;2.38;;;;;;;;;;5461855;26;20048;-74
2024/04/19 03:03:22;;;;;;;3.00;2.55;;;;;;;;;;5479474;26;20339;-74
2024/04/19 03:05:48;;;;;;;4.28;2.25;;;;;;;;;;5488786;26;20010;-74
2024/04/19 03:08:14;;;;;;;4.18;2.20;;;;;;;;;;5447857;26;20475;-75
2024/04/19 03:10:40;;;;;;;3.42;1.92;;;0.60;99.90;;;;;;5446018;26;20007;-74
2024/04/19 03:13:09;;;;;;;2.17;1.65;;;0.70;99.90;;;;;;5475390;26;20034;-74
2024/04/19 03:15:35;;;;;;;2.40;1.90;;;0.70;99.90;;;;;;5466432;26;20009;-74
2024/04/19 03:18:01;;;;;;;2.42;2.17;;;0.60;99.90;;;;;;5470132;26;20409;-75
2024/04/19 03:20:27;;;;;;;3.22;1.95;;;;;;;;;;5461147;26;20021;-75
2024/04/19 03:22:53;;;;;;;3.97;2.20;;;;;;;;;;5488151;26;20002;-75
2024/04/19 03:25:19;;;;;;;2.15;1.83;;;;;;;;;;5473658;26;20009;-75
2024/04/19 03:27:45;;;;;;;2.40;1.77;;;;;;;;;;5468172;26;20002;-75
2024/04/19 03:30:11;;;;;;;3.78;1.92;;;0.70;99.90;;;;;;5450640;26;20455;-75
2024/04/19 03:32:37;;;;;;;2.22;1.80;;;;;;;;;;5466558;26;20017;-74
2024/04/19 03:35:03;;;;;;;6.35;3.13;;;0.70;99.90;;;;;;5447074;26;20003;-75
2024/04/19 03:37:29;;;;;;;3.22;1.85;;;;;;;;;;5462431;26;20010;-75
2024/04/19 03:39:55;;;;;;;3.58;2.22;;;;;;;;;;5458168;26;20434;-75
2024/04/19 03:42:21;;;;;;;6.10;2.25;;;;;;;;;;5457769;26;20056;-74
2024/04/19 03:47:33;;;;;;;;;;;0.60;99.90;;;;;;5412257;26;20018;-74
2024/04/19 03:49:59;;;;;;;2.90;2.05;;;;;;;;;;5411693;26;20319;-74
2024/04/19 03:52:25;;;;;;;2.67;2.35;;;;;;;;;;5410782;26;20328;-75
2024/04/19 03:54:51;;;;;;;2.35;1.77;;;;;;;;;;5411011;26;19995;-75
2024/04/19 03:57:17;;;;;;;3.83;1.83;;;;;;;;;;5429868;26;20464;-74
2024/04/19 03:59:43;;;;;;;4.20;2.28;;;;;;;;;;5414435;26;19999;-74
2024/04/19 04:02:09;;;;;;;4.30;3.47;;;;;;;;;;5430454;26;19998;-74
2024/04/19 04:04:35;;;;;;;4.22;1.90;;;;;;;;;;5415110;26;20045;-75
2024/04/19 04:07:01;;;;;;;4.00;3.20;;;;;;;;;;5414525;26;20474;-75
2024/04/19 04:09:27;;;;;;;7.85;2.58;;;;;;;;;;5415191;26;20010;-75
2024/04/19 04:11:53;;;;;;;3.67;2.42;;;;;;;;;;5414926;26;19995;-74
2024/04/19 04:14:19;;;;;;;2.03;1.88;;;0.40;99.90;;;;;;5421770;26;20044;-75
2024/04/19 04:16:46;;;;;;;5.22;2.42;;;;;;;;;;5417644;26;19991;-75
2024/04/19 04:19:12;;;;;;;3.97;3.17;;;0.90;99.90;;;;;;5448899;26;20016;-74
2024/04/19 04:21:38;;;;;;;6.07;3.42;;;;;;;;;;5428972;26;20490;-74
2024/04/19 04:24:05;;;;;;;3.03;1.85;;;;;;;;;;5421675;26;20006;-75
2024/04/19 04:26:31;;;;;;;8.90;2.40;;;;;;;;;;5397854;26;20452;-75
2024/04/19 04:28:56;;;;;;;12.27;2.50;;;0.30;99.90;;;;;;5445418;26;20066;-75
2024/04/19 04:31:22;;;;;;;5.93;2.83;;;;;;;;;;5435940;26;19995;-74
2024/04/19 04:33:48;;;;;;;3.72;1.83;;;;;;;;;;5426623;26;20019;-72
2024/04/19 04:36:14;;;;;;;3.65;2.22;;;;;;;;;;5451010;26;19998;-74
2024/04/19 04:38:40;;;;;;;6.78;3.10;;;;;;;;;;5441234;26;20006;-75
2024/04/19 04:41:06;;;;;;;5.57;2.67;;;;;;;;;;5414221;26;20010;-75
2024/04/19 04:43:32;;;;;;;5.20;2.85;;;;;;;;;;5412811;26;20019;-74
2024/04/19 04:45:58;;;;;;;8.32;3.50;;;;;;;;;;5432943;26;20005;-75
2024/04/19 04:48:24;;;;;;;3.42;2.13;;;;;;;;;;5445074;26;20013;-75
2024/04/19 04:50:50;;;;;;;4.53;2.97;;;;;;;;;;5447529;26;20078;-74
2024/04/19 04:53:16;;;;;;;3.75;2.38;;;;;;;;;;5424475;26;19995;-74
2024/04/19 04:55:42;;;;;;;11.77;3.92;;;;;;;;;;5428559;26;20437;-74
2024/04/19 04:58:08;;;;;;;5.57;3.22;;;;;;;;;;5443382;26;19999;-75
2024/04/19 05:00:36;;;;;;;3.40;1.75;;;0.80;99.90;;;;;;5434403;26;20453;-74
2024/04/19 05:03:05;;;;;;;2.55;2.35;;;1.20;99.90;;;;;;5415725;26;19991;-74
2024/04/19 05:05:31;;;;;;;8.05;3.58;;;;;;;;;;5431270;26;20003;-75
2024/04/19 05:07:57;;;;;;;3.88;2.22;;;1.10;99.90;;;;;;5418984;26;20097;-74
2024/04/19 05:10:23;;;;;;;8.43;1.98;;;;;;;;;;5431347;26;20084;-74
2024/04/19 05:12:49;;;;;;;3.42;2.40;;;1.00;99.90;;;;;;5436019;26;20011;-75
2024/04/19 05:15:16;;;;;;;2.42;2.20;;;;;;;;;;5439296;26;20081;-74
2024/04/19 05:17:43;;;;;;;6.47;3.17;;;;;;;;;;5423805;26;19999;-74
2024/04/19 05:20:09;;;;;;;4.95;2.10;;;0.90;99.90;;;;;;5430873;26;20007;-74
2024/04/19 05:22:37;;;;;;;7.75;2.28;;;;;;;;;;5429042;26;20010;-75
2024/04/19 05:25:04;;;;;;;6.97;2.03;;;1.20;99.90;;;;;;5443841;26;20467;-74
2024/04/19 05:27:30;;;;;;;3.75;2.47;;;;;;;;;;5417932;26;20031;-74
2024/04/19 05:29:56;;;;;;;6.25;2.65;;;;;;;;;;5430417;26;19999;-74
2024/04/19 05:32:22;;;;;;;3.05;2.40;;;;;;;;;;5425794;26;20002;-74
2024/04/19 05:34:48;;;;;;;2.55;2.35;;;;;;;;;;5448314;26;20033;-75
2024/04/19 05:37:14;;;;;;;6.47;4.10;;;;;;;;;;5444476;26;19999;-75
2024/04/19 05:39:40;;;;;;;4.13;2.40;;;;;;;;;;5432000;26;20009;-74
2024/04/19 05:42:08;;;;;;;2.83;2.58;;;1.90;99.90;;;;;;5420000;26;20455;-75
2024/04/19 05:44:34;;;;;;;4.50;2.75;;;;;;;;;;5414323;26;19999;-77
2024/04/19 05:47:00;;;;;;;12.77;3.88;;;;;;;;;;5388630;26;20362;-75
2024/04/19 05:49:29;;;;;;;6.10;2.83;;;2.20;99.90;;;;;;5402235;26;20007;-76
2024/04/19 05:51:55;;;;;;;3.38;2.55;;;;;;;;;;5421362;26;20709;-76
2024/04/19 05:54:23;;;;;;;7.70;2.85;;;;;;;;;;5444473;26;20055;-76
2024/04/19 05:56:49;;;;;;;5.45;2.65;;;;;;;;;;5412341;26;20318;-76
2024/04/19 05:59:15;;;;;;;3.42;2.03;;;;;;;;;;5435210;26;19996;-76
2024/04/19 06:01:40;;;;;;;6.13;2.60;;;;;;;;;;5441652;26;20003;-77
2024/04/19 06:04:07;;;;;;;4.82;2.58;;;;;;;;;;5419525;26;20097;-77
2024/04/19 06:06:34;;;;;;;2.63;2.17;;;;;;;;;;5423475;26;20013;-76
2024/04/19 06:09:00;;;;;;;2.72;2.38;;;3.10;99.90;;;;;;5420110;26;20009;-77
2024/04/19 06:11:26;;;;;;;4.38;3.53;;;;;;;;;;5423834;26;19990;-76
2024/04/19 06:13:53;;;;;;;5.80;3.30;;;;;;;;;;5414698;26;20009;-74
2024/04/19 06:16:19;;;;;;;5.82;2.92;;;;;;;;;;5422733;26;19995;-74
2024/04/19 06:18:45;;;;;;;3.30;2.80;;;4.80;99.90;;;;;;5433872;26;20007;-76
2024/04/19 06:21:11;;;;;;;6.18;3.97;;;;;;;;;;5404941;26;20031;-76
2024/04/19 06:23:37;;;;;;;4.63;4.22;;;;;;;;;;5415008;26;20026;-76
2024/04/19 06:26:04;;;;;;;10.45;5.75;;;15.20;72.30;;;;;;5437350;26;20035;-78
2024/04/19 06:28:32;;;;;;;11.70;7.00;;;;;;;;;;5427571;26;20005;-77
2024/04/19 06:31:09;;;;;;;15.38;8.77;;;21.30;54.80;;;;;;5400202;26;20011;-78
2024/04/19 06:33:35;;;;;;;17.02;10.30;;;;;;;;;;5414422;26;20405;-77
2024/04/19 06:36:00;;;;;;;17.45;8.88;;;21.20;53.60;;;;;;5437776;26;20003;-77
2024/04/19 06:38:27;;;;;;;17.35;9.10;;;;;;;;;;5418519;26;20004;-77
2024/04/19 06:40:52;;;;;;;15.35;8.55;;;24.40;48.70;;;;;;5418668;26;20007;-78
2024/04/19 06:43:19;;;;;;;13.02;6.25;;;;;;;;;;5431323;26;20348;-77
2024/04/19 06:45:45;;;;;;;11.57;7.03;;;;;;;;;;5430556;26;20000;-77
2024/04/19 06:48:11;;;;;;;7.07;5.32;;;28.20;45.10;;;;;;5417412;26;20048;-77
2024/04/19 06:50:37;;;;;;;4.03;3.60;;;;;;;;;;5431104;26;20343;-78
2024/04/19 06:53:03;;;;;;;4.60;3.42;;;29.60;38.00;;;;;;5410645;26;20004;-76
2024/04/19 06:55:28;;;;;;;4.93;3.75;;;30.50;37.70;;;;;;5424302;26;20026;-77
2024/04/19 06:57:57;;;;;;;3.38;3.08;;;31.40;32.20;;;;;;5412821;26;19999;-77
2024/04/19 07:00:23;;;;;;;3.53;3.22;;;31.80;30.40;;;;;;5429094;26;20039;-78
2024/04/19 07:02:49;;;;;;;3.87;2.80;;;;;;;;;;5417589;26;20328;-77
2024/04/19 07:05:15;;;;;;;2.33;2.13;;;33.40;29.30;;;;;;5426498;26;20073;-78
2024/04/19 07:07:41;;;;;;;5.57;2.05;;;;;;;;;;5411600;26;20015;-77
2024/04/19 07:10:07;;;;;;;3.20;1.90;;;;;;;;;;5418413;26;20003;-77
2024/04/19 07:12:34;;;;;;;8.60;2.60;;;;;;;;;;5417439;26;20013;-77
2024/04/19 07:15:00;;;;;;;3.50;2.10;;;;;;;;;;5404689;26;20007;-77
2024/04/19 07:17:26;;;;;;;6.65;2.95;;;;;;;;;;5420116;26;20030;-77
2024/04/19 07:19:51;;;;;;;4.35;2.75;;;17.40;53.00;;;;;;5404589;26;20007;-77
2024/04/19 07:22:18;;;;;;;5.20;2.55;;;;;;;;;;5410942;26;20045;-77
2024/04/19 07:24:44;;;;;;;7.35;3.03;;;;;;;;;;5412702;26;20015;-77
2024/04/19 07:27:10;;;;;;;5.35;3.63;;;;;;;;;;5416354;26;19999;-76
2024/04/19 07:29:36;;;;;;;4.18;2.95;;;;;;;;;;5422278;26;20053;-77
2024/04/19 07:32:02;;;;;;;8.27;4.82;;;;;;;;;;5419810;26;20020;-77
2024/04/19 07:34:28;;;;;;;7.90;5.75;;;;;;;;;;5420272;26;20441;-77
2024/04/19 07:36:54;;;;;;;6.07;5.18;;;;;;;;;;5420116;26;20000;-76
2024/04/19 07:39:20;;;;;;;5.85;3.60;;;;;;;;;;5436667;26;20036;-77
2024/04/19 07:41:46;;;;;;;4.82;3.00;;;;;;;;;;5417116;26;20053;-77
2024/04/19 07:44:12;;;;;;;3.60;2.75;;;;;;;;;;5434777;26;20007;-77
2024/04/19 07:46:38;;;;;;;4.13;2.95;;;;;;;;;;5423764;26;19999;-77
2024/04/19 07:49:04;;;;;;;5.65;3.10;;;;;;;;;;5425210;26;19996;-77
2024/04/19 07:51:31;;;;;;;4.43;3.10;;;;;;;;;;5427234;26;20027;-77
2024/04/19 07:53:56;;;;;;;4.22;3.45;;;23.80;41.30;;;;;;5412837;26;20577;-75
2024/04/19 07:56:22;;;;;;;4.07;2.60;;;;;;;;;;5416563;26;20009;-75
2024/04/19 07:58:48;;;;;;;4.88;2.70;;;;;;;;;;5424388;26;20007;-76
2024/04/19 08:01:14;;;;;;;5.10;2.17;;;;;;;;;;5416844;26;20005;-76
2024/04/19 08:03:41;;;;;;;2.75;1.95;;;;;;;;;;5426692;26;19995;-76
2024/04/19 08:06:08;;;;;;;2.60;1.85;;;;;;;;;;5415131;26;20413;-76
2024/04/19 08:08:34;;;;;;;3.28;2.30;;;;;;;;;;5415853;26;20044;-77
2024/04/19 08:11:01;;;;;;;4.78;2.58;;;;;;;;;;5374152;26;20486;-76
2024/04/19 08:13:27;;;;;;;3.10;2.20;;;;;;;;;;5418425;26;20310;-77
2024/04/19 08:15:53;;;;;;;3.13;1.85;;;26.80;38.00;;;;;;5438194;26;20007;-76
2024/04/19 08:18:19;;;;;;;4.30;2.72;;;;;;;;;;5424497;26;20051;-77
2024/04/19 08:20:45;;;;;;;3.60;2.63;;;;;;;;;;5410722;26;20083;-77
2024/04/19 08:23:10;;;;;;;5.05;2.90;;;29.60;34.20;;;;;;5421374;26;20007;-77
2024/04/19 08:25:36;;;;;;;2.55;2.28;;;;;;;;;;5416118;26;20031;-78
2024/04/19 08:28:02;;;;;;;3.17;1.63;;;;;;;;;;5415632;26;20044;-77
2024/04/19 08:30:29;;;;;;;2.63;1.98;;;31.00;26.00;;;;;;5426478;26;20002;-76
2024/04/19 08:32:55;;;;;;;3.45;1.85;;;;;;;;;;5383540;26;20015;-76
2024/04/19 08:35:21;;;;;;;4.88;1.90;;;;;;;;;;5422410;26;20003;-76
2024/04/19 08:37:47;;;;;;;3.55;1.80;;;;;;;;;;5423211;26;19992;-77
2024/04/19 08:40:14;;;;;;;3.80;2.17;;;;;;;;;;5428369;26;20546;-77
2024/04/19 08:42:40;;;;;;;;;;;28.60;26.80;;;;;;5404144;26;20009;-76
2024/04/19 08:45:07;;;;;;;2.63;1.95;;;;;;;;;;5418969;26;19925;-77
2024/04/19 08:47:35;;;;;;;2.53;1.80;;;32.40;25.50;;;;;;5434969;26;20005;-77
2024/04/19 08:50:05;;;;;;;2.15;1.95;;;32.90;25.00;;;;;;5434256;26;20053;-77
2024/04/19 08:52:31;;;;;;;1.75;1.63;;;33.20;24.40;;;;;;5422408;26;20007;-77
2024/04/19 08:55:05;;;;;;;3.22;2.20;;;34.40;24.50;;;;;;5437144;26;20011;-77
2024/04/19 08:57:31;;;;;;;3.63;2.33;;;;;;;;;;5411991;26;20014;-76
2024/04/19 08:59:58;;;;;;;4.15;2.20;;;35.50;30.60;;;;;;5416881;26;20479;-77
2024/04/19 09:02:24;;;;;;;2.35;2.15;;;;;;;;;;5420215;26;19999;-76
2024/04/19 09:04:50;;;;;;;2.60;1.73;;;;;;;;;;5426551;26;20470;-77
2024/04/19 09:07:16;;;;;;;3.17;2.10;;;;;;;;;;5389780;26;20003;-78
2024/04/19 09:09:43;;;;;;;2.23;1.67;;;34.80;23.60;;;;;;5424146;26;19999;-77
2024/04/19 09:12:09;;;;;;;4.88;2.00;;;33.10;32.00;;;;;;5416204;26;20399;-74
2024/04/19 09:14:35;;;;;;;2.87;1.70;;;;;;;;;;5432120;26;20041;-75
2024/04/19 09:17:01;;;;;;;3.33;2.07;;;32.50;33.40;;;;;;5440410;26;20016;-76
2024/04/19 09:19:28;;;;;;;4.30;1.73;;;31.60;29.80;;;;;;5418802;26;20027;-77
2024/04/19 09:21:54;;;;;;;3.10;1.98;;;;;;;;;;5415511;26;20425;-76
2024/04/19 09:24:20;;;;;;;2.93;2.10;;;;;;;;;;5432176;26;20528;-77
2024/04/19 09:26:46;;;;;;;2.15;1.67;;;;;;;;;;5433275;26;20030;-76
2024/04/19 09:29:12;;;;;;;2.95;1.90;;;;;;;;;;5426946;26;20010;-76
2024/04/19 09:31:42;;;;;;;3.00;1.42;;;28.10;25.60;;;;;;5425167;26;20002;-76
2024/04/19 09:34:08;;;;;;;2.53;2.00;;;;;;;;;;5379809;26;19995;-76
2024/04/19 09:36:34;;;;;;;3.47;1.80;;;;;;;;;;5396578;26;20018;-77
2024/04/19 09:39:02;;;;;;;2.35;1.77;;;32.00;26.50;;;;;;5435665;26;20014;-76
2024/04/19 09:41:28;;;;;;;2.72;1.70;;;34.30;24.60;;;;;;5409735;26;20488;-76
2024/04/19 09:43:58;;;;;;;2.95;1.52;;;38.30;26.50;;;;;;5389473;26;19995;-77
2024/04/19 09:46:28;;;;;;;1.75;1.45;;;37.80;22.50;;;;;;5424392;26;19998;-77
2024/04/19 09:48:59;;;;;;;2.22;1.55;;;36.50;22.60;;;;;;5434106;26;19995;-77
2024/04/19 09:51:34;;;;;;;8.02;3.42;;;35.50;30.10;;;;;;5418405;26;20014;-76
2024/04/19 09:54:08;;;;;;;4.10;3.10;;;35.80;26.90;;;;;;5431826;26;19994;-77
2024/04/19 09:56:53;;;;;;;1.92;1.23;;;36.50;22.90;;;;;;5438911;26;20232;-77
2024/04/19 09:59:20;;;;;;;1.75;1.48;;;37.50;23.20;;;;;;5427136;26;19999;-77
2024/04/19 10:01:46;;;;;;;;;;;36.40;21.60;;;;;;5420204;26;20006;-77
2024/04/19 10:04:13;;;;;;;2.30;1.77;;;;;;;;;;5423899;26;19935;-76
2024/04/19 10:06:39;;;;;;;2.47;2.28;;;32.20;23.60;;;;;;5428298;26;20003;-76
2024/04/19 10:09:08;;;;;;;2.13;1.92;;;35.30;23.50;;;;;;5437146;26;20109;-77
2024/04/19 10:11:38;;;;;;;2.40;1.63;;;36.00;25.00;;;;;;5413486;26;20021;-76
2024/04/19 10:14:05;;;;;;;3.55;1.40;;;32.60;21.30;;;;;;5424330;26;20009;-76
2024/04/19 10:16:32;;;;;;;1.42;0.95;;;33.30;26.30;;;;;;5399824;26;20061;-77
2024/04/19 10:18:58;;;;;;;1.70;0.70;;;32.40;23.40;;;;;;5432689;26;20002;-76
2024/04/19 10:21:27;;;;;;;1.73;1.00;;;32.30;23.10;;;;;;5424204;26;20018;-77
2024/04/19 10:23:53;;;;;;;1.00;0.88;;;;;;;;;;5420812;26;20393;-76
2024/04/19 10:26:23;;;;;;;1.45;0.80;;;30.20;24.30;;;;;;5406201;26;19999;-77
2024/04/19 10:28:55;;;;;;;1.45;1.13;;;30.50;24.70;;;;;;5428833;26;20027;-76
2024/04/19 10:31:21;;;;;;;1.73;1.33;;;30.40;27.50;;;;;;5420236;26;20050;-76
2024/04/19 10:33:47;;;;;;;0.80;0.57;;;28.90;34.00;;;;;;5430240;26;20456;-76
2024/04/19 10:36:13;;;;;;;3.08;1.55;;;;;;;;;;5417375;26;20019;-76
2024/04/19 10:38:40;;;;;;;0.75;0.73;;;;;;;;;;5416873;26;19999;-75
2024/04/19 10:41:06;;;;;;;1.17;1.08;;;;;;;;;;5402767;26;20007;-76
2024/04/19 10:43:33;;;;;;;1.55;1.00;;;;;;;;;;5434439;26;19995;-76
2024/04/19 10:45:58;;;;;;;1.70;1.33;;;;;;;;;;5432173;26;20447;-76
2024/04/19 10:48:24;;;;;;;2.60;1.23;;;;;;;;;;5424113;26;20020;-76
2024/04/19 10:50:50;;;;;;;3.35;1.15;;;;;;;;;;5421329;26;20348;-76
2024/04/19 10:53:20;;;;;;;2.58;1.77;;;24.50;27.20;;;;;;5426573;26;20011;-75
2024/04/19 10:55:46;;;;;;;5.13;1.58;;;23.60;27.80;;;;;;5429151;26;20003;-79
2024/04/19 10:58:13;;;;;;;3.50;2.13;;;;;;;;;;5428507;26;20010;-79
2024/04/19 11:00:46;;;;;;;3.70;1.30;;;25.00;28.20;;;;;;5435893;26;20293;-79
2024/04/19 11:03:13;;;;;;;3.35;1.70;;;;;;;;;;5403448;26;20096;-78
2024/04/19 11:05:39;;;;;;;1.60;1.50;;;;;;;;;;5395498;26;21458;-79
2024/04/19 11:08:06;;;;;;;1.27;1.17;;;;;;;;;;5437905;26;20003;-80
2024/04/19 11:10:33;;;;;;;2.03;1.83;;;36.20;23.40;;;;;;5439360;26;20012;-80
2024/04/19 11:12:59;;;;;;;1.98;1.25;;;;;;;;;;5405624;26;20229;-79
2024/04/19 11:15:26;;;;;;;3.05;2.28;;;33.60;31.00;;;;;;5445047;26;20563;-79
2024/04/19 11:17:54;;;;;;;2.55;1.70;;;;;;;;;;5416305;26;20347;-79
2024/04/19 11:20:20;;;;;;;1.90;1.38;;;30.20;24.60;;;;;;5440769;26;20028;-78
2024/04/19 11:22:46;;;;;;;1.00;0.90;;;;;;;;;;5422011;26;20247;-78
2024/04/19 11:25:12;;;;;;;1.10;1.00;;;;;;;;;;5447221;26;20002;-78
2024/04/19 11:27:38;;;;;;;1.23;0.85;;;;;;;;;;5437113;26;20134;-78
2024/04/19 11:30:04;;;;;;;4.63;1.27;;;28.40;26.00;;;;;;5424926;26;20017;-79
2024/04/19 11:32:31;;;;;;;1.33;1.23;;;31.70;25.80;;;;;;5421412;26;19998;-84
2024/04/19 11:34:57;;;;;;;1.10;0.88;;;;;;;;;;5449317;26;20003;-84
2024/04/19 11:37:23;;;;;;;3.42;1.17;;;;;;;;;;5453878;26;20015;-78
2024/04/19 11:39:48;;;;;;;1.35;1.15;;;35.00;28.00;;;;;;5456323;26;20031;-78
2024/04/19 11:42:14;;;;;;;1.80;1.15;;;33.70;27.40;;;;;;5421964;26;20362;-78
2024/04/19 11:44:42;;;;;;;1.40;1.15;;;;;;;;;;5425775;26;20010;-78
2024/04/19 11:47:08;;;;;;;1.58;0.85;;;31.40;30.10;;;;;;5427535;26;20023;-78
2024/04/19 11:49:34;;;;;;;1.00;0.80;;;31.20;25.80;;;;;;5436785;26;20010;-77
2024/04/19 11:52:00;;;;;;;2.13;1.70;;;29.80;24.20;;;;;;5418978;26;20041;-77
2024/04/19 11:54:27;;;;;;;1.73;1.42;;;28.40;24.40;;;;;;5440363;26;20023;-77
2024/04/19 11:56:56;;;;;;;1.63;1.00;;;27.00;34.50;;;;;;5431330;26;20021;-78
2024/04/19 11:59:23;;;;;;;2.20;1.73;;;;;;;;;;5425176;26;20675;-78
2024/04/19 12:01:50;;;;;;;;;;;26.00;26.10;;;;;;5419765;26;20348;-78
2024/04/19 12:04:15;;;;;;;;;;;25.60;27.10;;;;;;5422468;26;19933;-78
2024/04/19 12:06:41;;;;;;;1.20;1.10;;;25.00;39.40;;;;;;5441971;26;20067;-77
2024/04/19 12:09:07;;;;;;;1.65;0.88;;;;;;;;;;5431445;26;20003;-77
2024/04/19 12:11:33;;;;;;;1.35;1.23;;;;;;;;;;5408638;26;20015;-76
2024/04/19 12:13:59;;;;;;;1.10;1.00;;;;;;;;;;5426127;26;20476;-77
2024/04/19 12:16:25;;;;;;;2.60;1.17;;;;;;;;;;5436608;26;19999;-77
2024/04/19 12:18:51;;;;;;;1.08;0.98;;;;;;;;;;5424074;26;20031;-78
2024/04/19 12:21:18;;;;;;;1.48;1.38;;;;;;;;;;5397548;26;19996;-75
2024/04/19 12:23:45;;;;;;;1.60;1.42;;;;;;;;;;5431215;26;19999;-75
2024/04/19 12:26:13;;;;;;;2.20;1.75;;;24.70;27.30;;;;;;5421816;26;19999;-76
2024/04/19 12:28:39;;;;;;;0.90;0.80;;;24.40;39.50;;;;;;5429000;26;20433;-75
2024/04/19 12:31:05;;;;;;;2.42;1.20;;;23.90;40.70;;;;;;5446936;26;19995;-75
2024/04/19 12:33:30;;;;;;;1.00;0.85;;;23.40;39.50;;;;;;5428347;26;19995;-75
2024/04/19 12:35:56;;;;;;;2.90;1.20;;;;;;;;;;5450399;26;19998;-75
2024/04/19 12:38:22;;;;;;;3.92;1.20;;;23.90;28.10;;;;;;5437786;26;20013;-75
2024/04/19 12:40:48;;;;;;;1.92;1.35;;;;;;;;;;5414953;26;19999;-75
2024/04/19 12:43:15;;;;;;;6.00;1.50;;;;;;;;;;5426484;26;20071;-75
2024/04/19 12:45:42;;;;;;;1.33;1.10;;;24.10;41.00;;;;;;5435983;26;20010;-75
2024/04/19 12:48:08;;;;;;;2.25;1.35;;;;;;;;;;5459944;26;20013;-76
2024/04/19 12:50:36;;;;;;;1.10;1.00;;;23.30;38.90;;;;;;5475213;26;20010;-75
2024/04/19 12:53:05;;;;;;;4.28;1.20;;;22.60;29.20;;;;;;5445594;26;20002;-75
2024/04/19 12:55:31;;;;;;;1.35;1.00;;;22.00;43.10;;;;;;5427452;26;19999;-75
2024/04/19 12:57:58;;;;;;;2.22;1.20;;;21.90;43.30;;;;;;5458178;26;20003;-75
2024/04/19 13:00:24;;;;;;;1.63;1.05;;;;;;;;;;5470826;26;20432;-75
2024/04/19 13:02:49;;;;;;;1.50;1.20;;;22.60;43.90;;;;;;5428697;26;20074;-75
2024/04/19 13:05:16;;;;;;;3.55;1.23;;;;;;;;;;5467943;26;19999;-75
2024/04/19 13:07:41;;;;;;;1.58;1.38;;;22.90;43.10;;;;;;5456328;26;20006;-75
2024/04/19 13:10:10;;;;;;;1.98;1.00;;;22.60;29.50;;;;;;5461827;26;20002;-75
2024/04/19 13:12:36;;;;;;;3.05;1.60;;;;;;;;;;5452215;26;20334;-75
2024/04/19 13:15:02;;;;;;;1.40;1.13;;;;;;;;;;5465780;26;19999;-75
2024/04/19 13:17:28;;;;;;;2.13;1.20;;;;;;;;;;5486307;26;20322;-75
2024/04/19 13:19:54;;;;;;;1.00;0.85;;;22.10;30.00;;;;;;5462395;26;20012;-75
2024/04/19 13:22:21;;;;;;;3.05;0.82;;;;;;;;;;5485929;26;20354;-75
2024/04/19 13:24:47;;;;;;;;;;;21.50;30.70;;;;;;5476430;26;20034;-75
2024/04/19 13:27:15;;;;;;;2.60;1.08;;;21.30;46.20;;;;;;5449633;26;19924;-76
2024/04/19 13:29:42;;;;;;;2.00;1.08;;;;;;;;;;5459018;26;20516;-75
2024/04/19 13:32:08;;;;;;;1.25;0.90;;;;;;;;;;5485007;26;19994;-75
2024/04/19 13:34:34;;;;;;;1.40;1.10;;;;;;;;;;5476768;26;20002;-75
2024/04/19 13:37:00;;;;;;;1.95;1.15;;;;;;;;;;5457268;26;20348;-75
2024/04/19 13:39:26;;;;;;;1.02;0.80;;;21.50;39.00;;;;;;5457837;26;19998;-75
2024/04/19 13:41:52;;;;;;;1.15;1.00;;;21.00;45.20;;;;;;5458224;26;20040;-75
2024/04/19 13:44:18;;;;;;;1.10;1.00;;;;;;;;;;5439974;26;20080;-75
2024/04/19 13:46:44;;;;;;;3.35;0.80;;;;;;;;;;5449897;26;20236;-75
2024/04/19 13:49:11;;;;;;;1.20;1.10;;;;;;;;;;5409065;26;20006;-75
2024/04/19 13:51:36;;;;;;;2.90;0.83;;;21.00;46.90;;;;;;5433606;26;19995;-74
2024/04/19 13:54:02;;;;;;;1.38;0.80;;;;;;;;;;5422801;26;20351;-75
2024/04/19 13:56:30;;;;;;;1.50;1.40;;;;;;;;;;5417154;26;21469;-73
2024/04/19 13:58:58;;;;;;;3.35;1.42;;;;;;;;;;5427479;26;19996;-73